sensor_id;sensor_type;location;lat;lon;timestamp;pressure;altitude;pressure_sealevel;temperature;humidity
19259;BME280;9763;48.780;9.212;2023-02-10T00:01:45;100275.63;;;1.81;57.21
19259;BME280;9763;48.780;9.212;2023-02-10T00:05:10;100269.66;;;1.79;57.06
19259;BME280;9763;48.780;9.212;2023-02-10T00:08:35;100279.09;;;1.77;57.50
19259;BME280;9763;48.780;9.212;2023-02-10T00:11:59;100280.78;;;1.74;57.03
19259;BME280;9763;48.780;9.212;2023-02-10T00:15:23;100279.94;;;1.72;56.98
19259;BME280;9763;48.780;9.212;2023-02-10T00:18:47;100277.38;;;1.69;57.21
19259;BME280;9763;48.780;9.212;2023-02-10T00:22:12;100278.22;;;1.65;57.33
19259;BME280;9763;48.780;9.212;2023-02-10T00:25:37;100261.91;;;1.55;56.92
19259;BME280;9763;48.780;9.212;2023-02-10T00:29:00;100269.63;;;1.60;57.53
19259;BME280;9763;48.780;9.212;2023-02-10T00:32:25;100261.91;;;1.60;57.48
19259;BME280;9763;48.780;9.212;2023-02-10T00:35:48;100278.19;;;1.59;57.53
19259;BME280;9763;48.780;9.212;2023-02-10T00:39:15;100282.47;;;1.58;57.54
19259;BME280;9763;48.780;9.212;2023-02-10T00:42:38;100291.06;;;1.56;57.52
19259;BME280;9763;48.780;9.212;2023-02-10T00:46:03;100288.50;;;1.54;57.39
19259;BME280;9763;48.780;9.212;2023-02-10T00:49:27;100294.50;;;1.53;57.55
19259;BME280;9763;48.780;9.212;2023-02-10T00:52:51;100292.75;;;1.49;57.22
19259;BME280;9763;48.780;9.212;2023-02-10T00:56:17;100298.75;;;1.47;57.54
19259;BME280;9763;48.780;9.212;2023-02-10T00:59:41;100300.47;;;1.46;57.46
19259;BME280;9763;48.780;9.212;2023-02-10T01:03:05;100296.19;;;1.43;57.58
19259;BME280;9763;48.780;9.212;2023-02-10T01:06:29;100304.75;;;1.39;57.39
19259;BME280;9763;48.780;9.212;2023-02-10T01:09:54;100303.00;;;1.35;57.61
19259;BME280;9763;48.780;9.212;2023-02-10T01:13:21;100303.00;;;1.34;57.36
19259;BME280;9763;48.780;9.212;2023-02-10T01:16:45;100296.13;;;1.25;57.75
19259;BME280;9763;48.780;9.212;2023-02-10T01:20:10;100298.69;;;1.25;57.79
19259;BME280;9763;48.780;9.212;2023-02-10T01:23:35;100304.69;;;1.23;58.33
19259;BME280;9763;48.780;9.212;2023-02-10T01:26:59;100303.00;;;1.25;57.97
19259;BME280;9763;48.780;9.212;2023-02-10T01:30:24;100301.28;;;1.24;58.02
19259;BME280;9763;48.780;9.212;2023-02-10T01:33:52;100308.13;;;1.23;57.43
19259;BME280;9763;48.780;9.212;2023-02-10T01:37:16;100306.41;;;1.22;57.86
19259;BME280;9763;48.780;9.212;2023-02-10T01:40:39;100304.72;;;1.20;57.81
19259;BME280;9763;48.780;9.212;2023-02-10T01:44:06;100306.41;;;1.22;57.56
19259;BME280;9763;48.780;9.212;2023-02-10T01:47:53;100300.41;;;1.20;57.73
19259;BME280;9763;48.780;9.212;2023-02-10T01:51:23;100298.72;;;1.21;57.64
19259;BME280;9763;48.780;9.212;2023-02-10T01:54:53;100305.56;;;1.20;57.77
19259;BME280;9763;48.780;9.212;2023-02-10T01:58:24;100309.00;;;1.21;57.58
19259;BME280;9763;48.780;9.212;2023-02-10T02:01:50;100313.28;;;1.20;58.14
19259;BME280;9763;48.780;9.212;2023-02-10T02:05:30;100320.97;;;1.16;58.16
19259;BME280;9763;48.780;9.212;2023-02-10T02:08:54;100324.38;;;1.12;58.00
19259;BME280;9763;48.780;9.212;2023-02-10T02:12:29;100326.94;;;1.12;57.92
19259;BME280;9763;48.780;9.212;2023-02-10T02:16:03;100333.78;;;1.09;57.63
19259;BME280;9763;48.780;9.212;2023-02-10T02:20:17;100330.34;;;1.04;58.12
19259;BME280;9763;48.780;9.212;2023-02-10T02:24:43;100344.00;;;0.97;57.97
19259;BME280;9763;48.780;9.212;2023-02-10T02:28:28;100332.00;;;0.92;58.36
19259;BME280;9763;48.780;9.212;2023-02-10T02:32:02;100329.44;;;0.92;58.16
19259;BME280;9763;48.780;9.212;2023-02-10T02:35:32;100328.53;;;0.87;58.13
19259;BME280;9763;48.780;9.212;2023-02-10T02:39:01;100330.28;;;0.89;58.07
19259;BME280;9763;48.780;9.212;2023-02-10T02:42:29;100344.84;;;0.90;57.91
19259;BME280;9763;48.780;9.212;2023-02-10T02:46:00;100337.97;;;0.88;57.79
19259;BME280;9763;48.780;9.212;2023-02-10T02:49:38;100346.56;;;0.90;57.71
19259;BME280;9763;48.780;9.212;2023-02-10T02:53:18;100347.41;;;0.89;57.93
19259;BME280;9763;48.780;9.212;2023-02-10T02:56:50;100340.53;;;0.88;58.23
19259;BME280;9763;48.780;9.212;2023-02-10T03:00:21;100336.25;;;0.88;57.61
19259;BME280;9763;48.780;9.212;2023-02-10T03:03:47;100345.69;;;0.89;58.35
19259;BME280;9763;48.780;9.212;2023-02-10T03:07:12;100334.53;;;0.81;57.71
19259;BME280;9763;48.780;9.212;2023-02-10T03:10:36;100351.66;;;0.87;57.68
19259;BME280;9763;48.780;9.212;2023-02-10T03:14:00;100351.66;;;0.87;58.19
19259;BME280;9763;48.780;9.212;2023-02-10T03:17:24;100339.66;;;0.86;58.36
19259;BME280;9763;48.780;9.212;2023-02-10T03:20:47;100331.97;;;0.83;58.25
19259;BME280;9763;48.780;9.212;2023-02-10T03:24:12;100343.94;;;0.82;58.21
19259;BME280;9763;48.780;9.212;2023-02-10T03:27:36;100349.94;;;0.83;58.17
19259;BME280;9763;48.780;9.212;2023-02-10T03:31:02;100336.19;;;0.76;58.17
19259;BME280;9763;48.780;9.212;2023-02-10T03:34:27;100344.81;;;0.81;58.06
19259;BME280;9763;48.780;9.212;2023-02-10T03:37:51;100352.50;;;0.81;58.05
19259;BME280;9763;48.780;9.212;2023-02-10T03:41:16;100357.63;;;0.80;58.34
19259;BME280;9763;48.780;9.212;2023-02-10T03:44:40;100357.63;;;0.78;58.45
19259;BME280;9763;48.780;9.212;2023-02-10T03:48:04;100366.19;;;0.77;58.44
19259;BME280;9763;48.780;9.212;2023-02-10T03:51:27;100369.59;;;0.76;58.47
19259;BME280;9763;48.780;9.212;2023-02-10T03:54:51;100373.84;;;0.74;57.93
19259;BME280;9763;48.780;9.212;2023-02-10T03:58:16;100369.56;;;0.70;57.95
19259;BME280;9763;48.780;9.212;2023-02-10T04:01:39;100368.72;;;0.71;58.19
19259;BME280;9763;48.780;9.212;2023-02-10T04:05:04;100368.72;;;0.69;58.55
19259;BME280;9763;48.780;9.212;2023-02-10T04:08:28;100370.41;;;0.69;58.04
19259;BME280;9763;48.780;9.212;2023-02-10T04:11:52;100363.56;;;0.68;58.29
19259;BME280;9763;48.780;9.212;2023-02-10T04:15:17;100353.25;;;0.63;58.21
19259;BME280;9763;48.780;9.212;2023-02-10T04:18:41;100362.66;;;0.64;58.06
19259;BME280;9763;48.780;9.212;2023-02-10T04:22:05;100363.53;;;0.65;58.18
19259;BME280;9763;48.780;9.212;2023-02-10T04:25:29;100365.22;;;0.61;58.66
19259;BME280;9763;48.780;9.212;2023-02-10T04:28:52;100369.53;;;0.65;58.44
19259;BME280;9763;48.780;9.212;2023-02-10T04:32:17;100374.66;;;0.64;58.67
19259;BME280;9763;48.780;9.212;2023-02-10T04:35:40;100370.34;;;0.57;58.56
19259;BME280;9763;48.780;9.212;2023-02-10T04:39:06;100376.31;;;0.56;58.48
19259;BME280;9763;48.780;9.212;2023-02-10T04:42:30;100375.44;;;0.52;58.78
19259;BME280;9763;48.780;9.212;2023-02-10T04:45:53;100379.69;;;0.49;58.82
19259;BME280;9763;48.780;9.212;2023-02-10T04:49:18;100382.25;;;0.50;58.75
19259;BME280;9763;48.780;9.212;2023-02-10T04:52:42;100385.69;;;0.49;58.64
19259;BME280;9763;48.780;9.212;2023-02-10T04:56:06;100383.13;;;0.48;58.56
19259;BME280;9763;48.780;9.212;2023-02-10T04:59:30;100389.94;;;0.46;58.31
19259;BME280;9763;48.780;9.212;2023-02-10T05:02:54;100395.06;;;0.43;58.16
19259;BME280;9763;48.780;9.212;2023-02-10T05:06:18;100394.19;;;0.41;58.46
19259;BME280;9763;48.780;9.212;2023-02-10T05:09:42;100386.44;;;0.34;58.65
19259;BME280;9763;48.780;9.212;2023-02-10T05:13:06;100396.69;;;0.31;58.84
19259;BME280;9763;48.780;9.212;2023-02-10T05:16:30;100395.75;;;0.25;58.74
19259;BME280;9763;48.780;9.212;2023-02-10T05:19:54;100414.63;;;0.28;58.85
19259;BME280;9763;48.780;9.212;2023-02-10T05:23:19;100406.91;;;0.28;58.51
19259;BME280;9763;48.780;9.212;2023-02-10T05:26:42;100400.91;;;0.28;59.03
19259;BME280;9763;48.780;9.212;2023-02-10T05:30:07;100406.03;;;0.23;58.73
19259;BME280;9763;48.780;9.212;2023-02-10T05:33:32;100405.19;;;0.23;58.45
19259;BME280;9763;48.780;9.212;2023-02-10T05:36:56;100415.44;;;0.23;58.63
19259;BME280;9763;48.780;9.212;2023-02-10T05:40:21;100407.72;;;0.21;58.70
19259;BME280;9763;48.780;9.212;2023-02-10T05:43:45;100412.84;;;0.20;58.62
19259;BME280;9763;48.780;9.212;2023-02-10T05:47:09;100411.97;;;0.18;58.71
19259;BME280;9763;48.780;9.212;2023-02-10T05:50:33;100416.22;;;0.16;58.89
19259;BME280;9763;48.780;9.212;2023-02-10T05:54:08;100423.94;;;0.17;58.95
19259;BME280;9763;48.780;9.212;2023-02-10T05:57:33;100420.50;;;0.17;58.63
19259;BME280;9763;48.780;9.212;2023-02-10T06:00:57;100405.88;;;0.07;58.58
19259;BME280;9763;48.780;9.212;2023-02-10T06:04:21;100435.88;;;0.15;58.42
19259;BME280;9763;48.780;9.212;2023-02-10T06:07:44;100430.75;;;0.14;58.94
19259;BME280;9763;48.780;9.212;2023-02-10T06:11:09;100443.56;;;0.12;58.57
19259;BME280;9763;48.780;9.212;2023-02-10T06:14:34;100447.00;;;0.11;58.67
19259;BME280;9763;48.780;9.212;2023-02-10T06:18:00;100456.41;;;0.11;58.58
19259;BME280;9763;48.780;9.212;2023-02-10T06:21:23;100457.16;;;0.04;58.70
19259;BME280;9763;48.780;9.212;2023-02-10T06:24:48;100455.38;;;-0.04;59.00
19259;BME280;9763;48.780;9.212;2023-02-10T06:28:12;100462.28;;;-0.01;58.97
19259;BME280;9763;48.780;9.212;2023-02-10T06:31:37;100464.81;;;-0.03;59.50
19259;BME280;9763;48.780;9.212;2023-02-10T06:35:01;100467.38;;;0.00;59.37
19259;BME280;9763;48.780;9.212;2023-02-10T06:38:26;100466.53;;;0.02;59.19
19259;BME280;9763;48.780;9.212;2023-02-10T06:41:50;100476.84;;;0.05;58.86
19259;BME280;9763;48.780;9.212;2023-02-10T06:45:14;100481.16;;;0.07;58.84
19259;BME280;9763;48.780;9.212;2023-02-10T06:48:39;100484.63;;;0.11;59.42
19259;BME280;9763;48.780;9.212;2023-02-10T06:52:03;100482.06;;;0.11;59.30
19259;BME280;9763;48.780;9.212;2023-02-10T06:55:38;100490.63;;;0.13;59.00
19259;BME280;9763;48.780;9.212;2023-02-10T06:59:02;100493.22;;;0.16;59.17
19259;BME280;9763;48.780;9.212;2023-02-10T07:02:28;100500.13;;;0.20;59.09
19259;BME280;9763;48.780;9.212;2023-02-10T07:05:53;100501.88;;;0.22;59.21
19259;BME280;9763;48.780;9.212;2023-02-10T07:09:17;100510.47;;;0.27;59.17
19259;BME280;9763;48.780;9.212;2023-02-10T07:12:41;100499.34;;;0.27;59.00
19259;BME280;9763;48.780;9.212;2023-02-10T07:16:05;100506.31;;;0.40;59.18
19259;BME280;9763;48.780;9.212;2023-02-10T07:19:29;100502.09;;;0.45;58.74
19259;BME280;9763;48.780;9.212;2023-02-10T07:22:55;100493.56;;;0.49;59.21
19259;BME280;9763;48.780;9.212;2023-02-10T07:26:19;100502.19;;;0.56;58.85
19259;BME280;9763;48.780;9.212;2023-02-10T07:29:43;100510.78;;;0.61;58.90
19259;BME280;9763;48.780;9.212;2023-02-10T07:33:07;100516.84;;;0.67;58.85
19259;BME280;9763;48.780;9.212;2023-02-10T07:36:31;100512.56;;;0.68;59.14
19259;BME280;9763;48.780;9.212;2023-02-10T07:39:57;100517.75;;;0.76;59.23
19259;BME280;9763;48.780;9.212;2023-02-10T07:43:21;100519.56;;;0.83;58.85
19259;BME280;9763;48.780;9.212;2023-02-10T07:46:56;100522.22;;;0.93;59.03
19259;BME280;9763;48.780;9.212;2023-02-10T07:50:19;100513.66;;;0.97;59.12
19259;BME280;9763;48.780;9.212;2023-02-10T07:53:43;100529.25;;;1.19;58.67
19259;BME280;9763;48.780;9.212;2023-02-10T07:57:08;100521.63;;;1.32;58.47
19259;BME280;9763;48.780;9.212;2023-02-10T08:00:35;100512.25;;;1.45;58.44
19259;BME280;9763;48.780;9.212;2023-02-10T08:03:59;100505.47;;;1.53;59.07
19259;BME280;9763;48.780;9.212;2023-02-10T08:07:22;100517.50;;;1.63;58.61
19259;BME280;9763;48.780;9.212;2023-02-10T08:10:46;100509.84;;;1.68;59.10
19259;BME280;9763;48.780;9.212;2023-02-10T08:14:12;100513.28;;;1.76;59.16
19259;BME280;9763;48.780;9.212;2023-02-10T08:17:36;100509.88;;;1.80;59.06
19259;BME280;9763;48.780;9.212;2023-02-10T08:21:01;100504.75;;;1.80;58.76
19259;BME280;9763;48.780;9.212;2023-02-10T08:24:26;100520.22;;;1.91;58.66
19259;BME280;9763;48.780;9.212;2023-02-10T08:27:50;100525.41;;;2.03;58.94
19259;BME280;9763;48.780;9.212;2023-02-10T08:31:15;100522.94;;;2.54;58.96
19259;BME280;9763;48.780;9.212;2023-02-10T08:34:39;100528.13;;;3.32;58.51
19259;BME280;9763;48.780;9.212;2023-02-10T08:38:03;100517.56;;;4.10;58.47
19259;BME280;9763;48.780;9.212;2023-02-10T08:41:27;100531.09;;;4.54;58.26
19259;BME280;9763;48.780;9.212;2023-02-10T08:44:53;100522.38;;;4.66;58.13
19259;BME280;9763;48.780;9.212;2023-02-10T08:48:18;100522.28;;;4.81;57.84
19259;BME280;9763;48.780;9.212;2023-02-10T08:51:42;100525.69;;;4.85;57.53
19259;BME280;9763;48.780;9.212;2023-02-10T08:55:05;100522.31;;;4.77;57.67
19259;BME280;9763;48.780;9.212;2023-02-10T08:58:30;100519.78;;;4.70;57.74
19259;BME280;9763;48.780;9.212;2023-02-10T09:01:54;100523.31;;;4.57;58.12
19259;BME280;9763;48.780;9.212;2023-02-10T09:05:19;100525.13;;;4.46;58.06
19259;BME280;9763;48.780;9.212;2023-02-10T09:08:44;100520.88;;;4.34;58.28
19259;BME280;9763;48.780;9.212;2023-02-10T09:12:11;100513.13;;;4.27;58.02
19259;BME280;9763;48.780;9.212;2023-02-10T09:15:37;100518.34;;;4.21;57.87
19259;BME280;9763;48.780;9.212;2023-02-10T09:19:01;100521.81;;;4.14;58.13
19259;BME280;9763;48.780;9.212;2023-02-10T09:22:27;100522.72;;;4.08;58.38
19259;BME280;9763;48.780;9.212;2023-02-10T09:25:53;100511.53;;;4.03;57.85
19259;BME280;9763;48.780;9.212;2023-02-10T09:29:18;100515.84;;;4.01;58.65
19259;BME280;9763;48.780;9.212;2023-02-10T09:32:41;100519.28;;;4.03;58.58
19259;BME280;9763;48.780;9.212;2023-02-10T09:36:07;100522.72;;;4.05;58.20
19259;BME280;9763;48.780;9.212;2023-02-10T09:39:33;100519.28;;;4.05;58.14
19259;BME280;9763;48.780;9.212;2023-02-10T09:43:11;100522.69;;;4.13;58.84
19259;BME280;9763;48.780;9.212;2023-02-10T09:47:30;100523.53;;;4.13;58.27
19259;BME280;9763;48.780;9.212;2023-02-10T09:51:06;100524.41;;;4.15;58.59
19259;BME280;9763;48.780;9.212;2023-02-10T09:54:36;100524.41;;;4.18;59.05
19259;BME280;9763;48.780;9.212;2023-02-10T09:58:06;100525.25;;;4.22;59.01
19259;BME280;9763;48.780;9.212;2023-02-10T10:01:40;100520.03;;;4.29;58.77
19259;BME280;9763;48.780;9.212;2023-02-10T10:05:20;100513.13;;;4.31;58.83
19259;BME280;9763;48.780;9.212;2023-02-10T10:08:59;100520.81;;;4.42;58.88
19259;BME280;9763;48.780;9.212;2023-02-10T10:12:25;100517.34;;;4.46;59.03
19259;BME280;9763;48.780;9.212;2023-02-10T10:16:13;100519.88;;;4.55;58.74
19259;BME280;9763;48.780;9.212;2023-02-10T10:19:55;100521.53;;;4.62;58.72
19259;BME280;9763;48.780;9.212;2023-02-10T10:23:36;100516.34;;;4.70;58.59
19259;BME280;9763;48.780;9.212;2023-02-10T10:27:23;100515.38;;;4.82;58.62
19259;BME280;9763;48.780;9.212;2023-02-10T10:30:56;100518.72;;;4.94;59.05
19259;BME280;9763;48.780;9.212;2023-02-10T10:34:27;100516.03;;;5.05;58.58
19259;BME280;9763;48.780;9.212;2023-02-10T10:37:53;100514.94;;;5.30;58.66
19259;BME280;9763;48.780;9.212;2023-02-10T10:41:18;100505.44;;;6.09;58.17
19259;BME280;9763;48.780;9.212;2023-02-10T10:44:45;100498.50;;;7.69;58.59
19259;BME280;9763;48.780;9.212;2023-02-10T10:48:15;100510.38;;;9.95;58.03
19259;BME280;9763;48.780;9.212;2023-02-10T10:51:40;100494.94;;;12.23;55.90
19259;BME280;9763;48.780;9.212;2023-02-10T10:55:14;100497.66;;;14.26;54.90
19259;BME280;9763;48.780;9.212;2023-02-10T10:58:42;100473.91;;;15.86;52.90
19259;BME280;9763;48.780;9.212;2023-02-10T11:02:15;100468.59;;;17.12;51.25
19259;BME280;9763;48.780;9.212;2023-02-10T11:05:41;100467.69;;;18.26;50.20
19259;BME280;9763;48.780;9.212;2023-02-10T11:09:20;100459.47;;;19.24;48.75
19259;BME280;9763;48.780;9.212;2023-02-10T11:12:46;100453.16;;;19.90;48.44
19259;BME280;9763;48.780;9.212;2023-02-10T11:16:12;100445.59;;;20.46;47.20
19259;BME280;9763;48.780;9.212;2023-02-10T11:19:38;100449.69;;;20.98;47.08
19259;BME280;9763;48.780;9.212;2023-02-10T11:23:15;100449.72;;;21.55;46.48
19259;BME280;9763;48.780;9.212;2023-02-10T11:26:40;100451.53;;;21.88;45.65
19259;BME280;9763;48.780;9.212;2023-02-10T11:30:05;100450.25;;;22.05;45.00
19259;BME280;9763;48.780;9.212;2023-02-10T11:33:31;100456.28;;;22.07;44.33
19259;BME280;9763;48.780;9.212;2023-02-10T11:36:59;100457.72;;;22.00;44.67
19259;BME280;9763;48.780;9.212;2023-02-10T11:40:50;100446.09;;;21.89;44.13
19259;BME280;9763;48.780;9.212;2023-02-10T11:44:26;100445.50;;;21.52;43.15
19259;BME280;9763;48.780;9.212;2023-02-10T11:48:01;100445.97;;;21.00;43.62
19259;BME280;9763;48.780;9.212;2023-02-10T11:51:27;100446.94;;;20.15;43.57
19259;BME280;9763;48.780;9.212;2023-02-10T11:54:51;100449.72;;;19.12;44.71
19259;BME280;9763;48.780;9.212;2023-02-10T11:58:45;100448.03;;;17.75;45.69
19259;BME280;9763;48.780;9.212;2023-02-10T12:02:45;100452.28;;;16.28;46.76
19259;BME280;9763;48.780;9.212;2023-02-10T12:06:20;100451.47;;;15.11;49.24
19259;BME280;9763;48.780;9.212;2023-02-10T12:10:09;100453.25;;;14.22;50.03
19259;BME280;9763;48.780;9.212;2023-02-10T12:13:47;100445.25;;;13.48;51.01
19259;BME280;9763;48.780;9.212;2023-02-10T12:17:26;100445.09;;;12.90;52.03
19259;BME280;9763;48.780;9.212;2023-02-10T12:21:07;100446.03;;;12.46;53.05
19259;BME280;9763;48.780;9.212;2023-02-10T12:25:05;100441.00;;;11.96;53.70
19259;BME280;9763;48.780;9.212;2023-02-10T12:28:45;100436.38;;;11.56;53.97
19259;BME280;9763;48.780;9.212;2023-02-10T12:32:24;100442.69;;;11.26;54.51
19259;BME280;9763;48.780;9.212;2023-02-10T12:36:05;100435.75;;;11.00;54.85
19259;BME280;9763;48.780;9.212;2023-02-10T12:39:40;100435.53;;;10.81;54.89
19259;BME280;9763;48.780;9.212;2023-02-10T12:43:32;100417.91;;;10.61;54.79
19259;BME280;9763;48.780;9.212;2023-02-10T12:47:31;100423.72;;;10.43;55.18
19259;BME280;9763;48.780;9.212;2023-02-10T12:51:30;100426.81;;;10.28;54.74
19259;BME280;9763;48.780;9.212;2023-02-10T12:55:04;100410.59;;;10.18;55.12
19259;BME280;9763;48.780;9.212;2023-02-10T12:58:36;100416.06;;;10.09;54.34
19259;BME280;9763;48.780;9.212;2023-02-10T13:02:11;100417.25;;;9.99;54.18
19259;BME280;9763;48.780;9.212;2023-02-10T13:05:43;100406.16;;;9.91;53.60
19259;BME280;9763;48.780;9.212;2023-02-10T13:09:15;100408.91;;;9.88;53.46
19259;BME280;9763;48.780;9.212;2023-02-10T13:12:45;100413.22;;;9.89;53.47
19259;BME280;9763;48.780;9.212;2023-02-10T13:16:15;100412.44;;;9.85;53.33
19259;BME280;9763;48.780;9.212;2023-02-10T13:19:55;100409.91;;;9.82;53.50
19259;BME280;9763;48.780;9.212;2023-02-10T13:23:31;100405.69;;;9.78;53.29
19259;BME280;9763;48.780;9.212;2023-02-10T13:27:13;100406.84;;;9.68;53.14
19259;BME280;9763;48.780;9.212;2023-02-10T13:31:00;100402.66;;;9.64;53.33
19259;BME280;9763;48.780;9.212;2023-02-10T13:34:30;100401.84;;;9.62;52.78
19259;BME280;9763;48.780;9.212;2023-02-10T13:37:58;100402.69;;;9.62;52.78
19259;BME280;9763;48.780;9.212;2023-02-10T13:41:30;100402.72;;;9.61;52.43
19259;BME280;9763;48.780;9.212;2023-02-10T13:45:20;100401.09;;;9.57;52.62
19259;BME280;9763;48.780;9.212;2023-02-10T13:48:45;100412.41;;;9.56;53.24
19259;BME280;9763;48.780;9.212;2023-02-10T13:52:16;100409.94;;;9.53;52.47
19259;BME280;9763;48.780;9.212;2023-02-10T13:55:43;100410.00;;;9.50;52.36
19259;BME280;9763;48.780;9.212;2023-02-10T13:59:27;100417.88;;;9.48;52.91
19259;BME280;9763;48.780;9.212;2023-02-10T14:03:03;100413.53;;;9.47;52.47
19259;BME280;9763;48.780;9.212;2023-02-10T14:06:42;100414.47;;;9.45;52.92
19259;BME280;9763;48.780;9.212;2023-02-10T14:10:32;100406.81;;;9.40;52.36
19259;BME280;9763;48.780;9.212;2023-02-10T14:13:59;100406.94;;;9.35;52.39
19259;BME280;9763;48.780;9.212;2023-02-10T14:17:26;100408.72;;;9.33;52.56
19259;BME280;9763;48.780;9.212;2023-02-10T14:20:56;100403.53;;;9.32;52.16
19259;BME280;9763;48.780;9.212;2023-02-10T14:24:26;100407.94;;;9.30;52.14
19259;BME280;9763;48.780;9.212;2023-02-10T14:28:20;100412.41;;;9.26;52.42
19259;BME280;9763;48.780;9.212;2023-02-10T14:31:49;100413.38;;;9.22;51.95
19259;BME280;9763;48.780;9.212;2023-02-10T14:35:21;100412.56;;;9.20;52.16
19259;BME280;9763;48.780;9.212;2023-02-10T14:38:53;100406.47;;;9.20;51.95
19259;BME280;9763;48.780;9.212;2023-02-10T14:42:19;100403.13;;;9.16;52.62
19259;BME280;9763;48.780;9.212;2023-02-10T14:45:45;100400.53;;;9.16;52.62
19259;BME280;9763;48.780;9.212;2023-02-10T14:49:15;100397.09;;;9.14;52.09
19259;BME280;9763;48.780;9.212;2023-02-10T14:52:49;100404.09;;;9.12;52.49
19259;BME280;9763;48.780;9.212;2023-02-10T14:56:19;100403.31;;;9.09;51.99
19259;BME280;9763;48.780;9.212;2023-02-10T14:59:43;100399.91;;;9.07;52.27
19259;BME280;9763;48.780;9.212;2023-02-10T15:03:11;100403.53;;;9.01;51.76
19259;BME280;9763;48.780;9.212;2023-02-10T15:06:37;100402.81;;;8.94;52.03
19259;BME280;9763;48.780;9.212;2023-02-10T15:10:15;100410.00;;;8.86;52.11
19259;BME280;9763;48.780;9.212;2023-02-10T15:13:45;100403.34;;;8.75;51.76
19259;BME280;9763;48.780;9.212;2023-02-10T15:17:16;100406.06;;;8.70;52.04
19259;BME280;9763;48.780;9.212;2023-02-10T15:20:50;100404.44;;;8.66;51.72
19259;BME280;9763;48.780;9.212;2023-02-10T15:24:27;100402.00;;;8.58;51.71
19259;BME280;9763;48.780;9.212;2023-02-10T15:27:53;100403.03;;;8.53;51.94
19259;BME280;9763;48.780;9.212;2023-02-10T15:31:25;100408.47;;;8.44;51.39
19259;BME280;9763;48.780;9.212;2023-02-10T15:34:49;100400.94;;;8.33;51.69
19259;BME280;9763;48.780;9.212;2023-02-10T15:38:15;100398.47;;;8.24;52.00
19259;BME280;9763;48.780;9.212;2023-02-10T15:41:43;100397.78;;;8.17;51.92
19259;BME280;9763;48.780;9.212;2023-02-10T15:45:15;100400.50;;;8.11;51.39
19259;BME280;9763;48.780;9.212;2023-02-10T15:48:40;100400.66;;;8.05;51.85
19259;BME280;9763;48.780;9.212;2023-02-10T15:52:04;100393.81;;;8.01;51.91
19259;BME280;9763;48.780;9.212;2023-02-10T15:55:31;100394.00;;;7.93;51.56
19259;BME280;9763;48.780;9.212;2023-02-10T15:58:56;100396.75;;;7.86;51.43
19259;BME280;9763;48.780;9.212;2023-02-10T16:02:22;100384.03;;;7.74;51.27
19259;BME280;9763;48.780;9.212;2023-02-10T16:05:48;100386.78;;;7.66;51.38
19259;BME280;9763;48.780;9.212;2023-02-10T16:09:13;100396.53;;;7.56;51.37
19259;BME280;9763;48.780;9.212;2023-02-10T16:12:37;100395.03;;;7.46;51.75
19259;BME280;9763;48.780;9.212;2023-02-10T16:16:03;100400.47;;;7.34;51.86
19259;BME280;9763;48.780;9.212;2023-02-10T16:19:29;100395.53;;;7.20;51.95
19259;BME280;9763;48.780;9.212;2023-02-10T16:22:53;100393.16;;;7.08;51.96
19259;BME280;9763;48.780;9.212;2023-02-10T16:26:21;100397.75;;;6.94;51.56
19259;BME280;9763;48.780;9.212;2023-02-10T16:29:45;100404.03;;;6.81;52.12
19259;BME280;9763;48.780;9.212;2023-02-10T16:33:10;100398.13;;;6.73;52.32
19259;BME280;9763;48.780;9.212;2023-02-10T16:36:37;100396.50;;;6.66;51.88
19259;BME280;9763;48.780;9.212;2023-02-10T16:40:01;100396.69;;;6.57;52.37
19259;BME280;9763;48.780;9.212;2023-02-10T16:43:25;100402.88;;;6.49;51.93
19259;BME280;9763;48.780;9.212;2023-02-10T16:46:48;100405.56;;;6.42;52.40
19259;BME280;9763;48.780;9.212;2023-02-10T16:50:22;100417.81;;;6.34;51.79
19259;BME280;9763;48.780;9.212;2023-02-10T16:53:48;100423.16;;;6.23;51.92
19259;BME280;9763;48.780;9.212;2023-02-10T16:57:17;100413.81;;;6.11;52.35
19259;BME280;9763;48.780;9.212;2023-02-10T17:00:42;100425.06;;;6.10;52.34
19259;BME280;9763;48.780;9.212;2023-02-10T17:04:06;100421.66;;;6.07;52.53
19259;BME280;9763;48.780;9.212;2023-02-10T17:07:29;100430.31;;;6.04;52.61
19259;BME280;9763;48.780;9.212;2023-02-10T17:10:54;100429.53;;;5.99;52.50
19259;BME280;9763;48.780;9.212;2023-02-10T17:14:18;100425.25;;;5.98;52.52
19259;BME280;9763;48.780;9.212;2023-02-10T17:17:43;100423.53;;;5.97;52.51
19259;BME280;9763;48.780;9.212;2023-02-10T17:21:07;100438.25;;;5.94;52.29
19259;BME280;9763;48.780;9.212;2023-02-10T17:24:30;100431.44;;;5.85;52.37
19259;BME280;9763;48.780;9.212;2023-02-10T17:27:55;100437.47;;;5.86;52.13
19259;BME280;9763;48.780;9.212;2023-02-10T17:31:22;100422.06;;;5.75;52.75
19259;BME280;9763;48.780;9.212;2023-02-10T17:34:52;100436.78;;;5.73;52.74
19259;BME280;9763;48.780;9.212;2023-02-10T17:38:15;100432.56;;;5.66;52.60
19259;BME280;9763;48.780;9.212;2023-02-10T17:41:54;100440.25;;;5.69;52.83
19259;BME280;9763;48.780;9.212;2023-02-10T17:45:19;100435.13;;;5.67;52.67
19259;BME280;9763;48.780;9.212;2023-02-10T17:48:44;100434.22;;;5.68;52.88
19259;BME280;9763;48.780;9.212;2023-02-10T17:52:08;100448.88;;;5.71;52.85
19259;BME280;9763;48.780;9.212;2023-02-10T17:55:31;100446.31;;;5.69;52.28
19259;BME280;9763;48.780;9.212;2023-02-10T17:58:55;100445.50;;;5.66;52.34
19259;BME280;9763;48.780;9.212;2023-02-10T18:02:20;100449.84;;;5.62;52.52
19259;BME280;9763;48.780;9.212;2023-02-10T18:05:44;100446.44;;;5.59;52.35
19259;BME280;9763;48.780;9.212;2023-02-10T18:09:10;100452.53;;;5.55;52.34
19259;BME280;9763;48.780;9.212;2023-02-10T18:12:34;100455.16;;;5.52;52.24
19259;BME280;9763;48.780;9.212;2023-02-10T18:15:57;100458.63;;;5.49;52.68
19259;BME280;9763;48.780;9.212;2023-02-10T18:19:23;100457.03;;;5.40;52.39
19259;BME280;9763;48.780;9.212;2023-02-10T18:22:47;100463.06;;;5.41;52.38
19259;BME280;9763;48.780;9.212;2023-02-10T18:26:12;100469.13;;;5.37;52.20
19259;BME280;9763;48.780;9.212;2023-02-10T18:29:36;100471.81;;;5.31;52.28
19259;BME280;9763;48.780;9.212;2023-02-10T18:33:04;100451.31;;;5.08;52.75
19259;BME280;9763;48.780;9.212;2023-02-10T18:36:30;100469.38;;;5.14;52.46
19259;BME280;9763;48.780;9.212;2023-02-10T18:39:54;100479.72;;;5.16;52.43